Terminal Aerodrome Forecast
Issued by NWS Atlanta, GA

Home | Current Version | Previous Version | Text Only | Print | Product List | Glossary On
Versions: 1 2 3 4 5 6 7 8 9 10 11 12 13 14 15 16
000
FTUS42 KFFC 251136
TAFCSG
TAF
KCSG 251136Z 2512/2612 11006KT P6SM BKN012
     FM251500 13005KT P6SM BKN025
     FM252100 14009KT 6SM -SHRA BKN035 PROB30 2521/2601 3SM -TSRA
      BKN012CB
     FM260100 14007KT P6SM SCT025 BKN040
     FM260800 15006KT P6SM BKN009=

USA.gov is the U.S. government's official web portal to all federal, state and local government web resources and services.